createdAt,value
2022-12-19T00:01:16.499Z,28.97
2022-12-19T00:06:10.127Z,29.20
2022-12-19T00:11:04.776Z,29.00
2022-12-19T00:16:03.251Z,27.97
2022-12-19T00:21:00.438Z,28.43
2022-12-19T00:25:53.897Z,29.33
2022-12-19T00:30:47.709Z,27.20
2022-12-19T00:35:41.133Z,27.80
2022-12-19T00:40:36.336Z,27.77
2022-12-19T00:45:29.737Z,26.83
2022-12-19T00:50:24.685Z,28.60
2022-12-19T00:55:19.361Z,26.83
2022-12-19T01:00:17.435Z,26.63
2022-12-19T01:05:11.982Z,29.57
2022-12-19T01:10:07.149Z,28.13
2022-12-19T01:15:04.068Z,28.30
2022-12-19T01:20:01.988Z,26.10
2022-12-19T01:24:55.540Z,26.87
2022-12-19T01:29:52.197Z,26.40
2022-12-19T01:34:46.262Z,27.60
2022-12-19T01:39:41.000Z,29.53
2022-12-19T01:44:37.725Z,29.67
2022-12-19T01:49:35.450Z,26.73
2022-12-19T01:54:37.149Z,28.30
2022-12-19T01:59:37.003Z,26.80
2022-12-19T02:04:32.611Z,29.83
2022-12-19T02:09:30.764Z,28.50
2022-12-19T02:14:24.342Z,28.00
2022-12-19T02:20:46.686Z,28.50
2022-12-19T02:26:07.922Z,28.93
2022-12-19T02:31:19.414Z,29.63
2022-12-19T02:36:22.421Z,28.10
2022-12-19T02:41:24.351Z,27.50
2022-12-19T03:06:05.388Z,28.43
2022-12-19T03:11:03.292Z,27.23
2022-12-19T03:15:57.755Z,26.63
2022-12-19T03:21:03.856Z,27.07
2022-12-19T03:26:03.841Z,29.03
2022-12-19T03:31:01.946Z,27.40
2022-12-19T03:36:02.260Z,27.70
2022-12-19T03:40:57.836Z,26.43
2022-12-19T03:45:58.634Z,25.20
2022-12-19T03:51:06.813Z,27.33
2022-12-19T03:56:10.706Z,27.33
2022-12-19T04:01:07.072Z,26.93
2022-12-19T04:06:04.175Z,28.13
2022-12-19T04:11:05.270Z,26.67
2022-12-19T04:16:12.065Z,27.50
2022-12-19T04:21:15.807Z,24.50
2022-12-19T04:26:11.100Z,26.43
2022-12-19T04:31:06.666Z,25.70
2022-12-19T04:36:01.174Z,25.53
2022-12-19T04:40:56.781Z,27.47
2022-12-19T04:45:55.522Z,26.37
2022-12-19T04:50:50.549Z,26.83
2022-12-19T04:55:44.311Z,26.60
2022-12-19T05:00:40.051Z,23.67
2022-12-19T05:05:33.460Z,26.23
2022-12-19T05:10:26.963Z,26.20
2022-12-19T05:15:20.385Z,26.03
2022-12-19T05:20:15.059Z,26.20
2022-12-19T05:25:10.255Z,27.03
2022-12-19T05:30:03.683Z,26.87
2022-12-19T05:34:57.063Z,26.50
2022-12-19T05:39:51.757Z,29.37
2022-12-19T05:44:45.128Z,28.33
2022-12-19T05:49:41.019Z,27.30
2022-12-19T05:54:34.351Z,26.77
2022-12-19T05:59:29.099Z,28.43
2022-12-19T06:04:22.484Z,26.60
2022-12-19T06:09:15.878Z,25.07
2022-12-19T06:14:09.235Z,28.00
2022-12-19T06:19:04.098Z,26.30
2022-12-19T06:23:57.847Z,28.77
2022-12-19T06:28:53.750Z,27.13
2022-12-19T06:33:47.412Z,28.33
2022-12-19T06:38:42.546Z,28.20
2022-12-19T06:43:35.846Z,28.43
2022-12-19T06:48:29.802Z,26.27
2022-12-19T06:53:23.616Z,26.50
2022-12-19T06:58:23.993Z,27.60
2022-12-19T07:03:23.119Z,31.47
2022-12-19T07:08:16.536Z,31.53
2022-12-19T07:13:09.936Z,28.43
2022-12-19T07:18:10.241Z,34.90
2022-12-19T07:23:05.675Z,30.90
2022-12-19T07:27:59.452Z,28.23
2022-12-19T07:32:52.798Z,32.63
2022-12-19T07:37:47.784Z,34.43
2022-12-19T07:42:41.280Z,37.33
2022-12-19T07:47:34.953Z,34.27
2022-12-19T07:52:28.917Z,30.73
2022-12-19T07:57:23.651Z,33.23
2022-12-19T08:02:17.084Z,33.17
2022-12-19T08:07:10.818Z,36.07
2022-12-19T08:12:04.387Z,32.27
2022-12-19T08:22:13.279Z,33.50
2022-12-19T08:27:06.870Z,35.40
2022-12-19T08:32:01.594Z,36.77
2022-12-19T08:36:54.973Z,37.37
2022-12-19T08:41:48.390Z,38.73
2022-12-19T08:46:48.088Z,34.60
2022-12-19T08:51:44.422Z,39.80
2022-12-19T08:56:37.848Z,37.43
2022-12-19T09:01:36.469Z,36.50
2022-12-19T09:06:29.954Z,38.23
2022-12-19T09:11:25.232Z,38.50
2022-12-19T09:16:21.884Z,33.63
2022-12-19T09:21:15.705Z,35.43
2022-12-19T09:26:11.586Z,38.70
2022-12-19T09:31:09.331Z,37.77
2022-12-19T09:36:03.786Z,32.83
2022-12-19T09:41:21.581Z,34.63
2022-12-19T09:46:25.448Z,36.43
2022-12-19T09:51:34.325Z,33.50
2022-12-19T09:56:34.070Z,31.77
2022-12-19T10:01:53.578Z,38.47
2022-12-19T10:07:11.418Z,38.43
2022-12-19T10:12:44.837Z,37.47
2022-12-19T10:18:02.542Z,33.73
2022-12-19T10:23:47.018Z,37.03
2022-12-19T10:29:05.469Z,36.63
2022-12-19T10:34:09.270Z,39.73
2022-12-19T10:39:13.670Z,42.13
2022-12-19T10:44:10.631Z,42.67
2022-12-19T10:49:14.339Z,40.10
2022-12-19T10:54:07.936Z,39.43
2022-12-19T10:59:03.083Z,38.00
2022-12-19T11:09:25.566Z,38.33
2022-12-19T11:18:34.383Z,38.83
2022-12-19T11:29:26.597Z,38.27
2022-12-19T11:30:36.949Z,39.27
2022-12-19T11:35:50.222Z,36.57
2022-12-19T11:40:50.118Z,36.87
2022-12-19T11:45:59.515Z,39.07
2022-12-19T11:51:06.513Z,39.23
2022-12-19T11:56:16.484Z,38.93
2022-12-19T12:01:24.975Z,36.40
2022-12-19T12:06:19.900Z,40.00
2022-12-19T12:19:58.796Z,39.13
2022-12-19T12:29:21.028Z,37.17
2022-12-19T12:31:06.541Z,36.97
2022-12-19T12:31:52.228Z,37.30
2022-12-19T12:35:55.105Z,37.50
2022-12-19T12:39:47.824Z,37.00
2022-12-19T12:44:46.457Z,37.10
2022-12-19T12:49:45.856Z,35.17
2022-12-19T12:54:45.163Z,38.90
2022-12-19T12:59:38.551Z,37.87
2022-12-19T13:04:36.861Z,34.67
2022-12-19T13:09:35.407Z,38.07
2022-12-19T13:14:50.958Z,40.00
2022-12-19T13:19:57.976Z,37.30
2022-12-19T13:24:53.899Z,37.97
2022-12-19T13:30:03.848Z,33.43
2022-12-19T13:35:10.593Z,36.80
2022-12-19T13:40:30.607Z,36.40
2022-12-19T13:45:31.440Z,35.97
2022-12-19T13:50:31.997Z,36.30
2022-12-19T13:55:25.891Z,37.97
2022-12-19T14:00:24.070Z,36.87
2022-12-19T14:05:36.075Z,37.30
2022-12-19T14:11:34.127Z,36.67
2022-12-19T14:16:03.290Z,36.23
2022-12-19T14:22:08.863Z,39.03
2022-12-19T14:28:19.655Z,36.43
2022-12-19T14:32:33.374Z,38.87
2022-12-19T14:37:02.195Z,35.33
2022-12-19T14:42:31.368Z,33.67
2022-12-19T14:52:35.251Z,33.37
2022-12-19T14:54:50.326Z,36.10
2022-12-19T14:58:53.315Z,31.43
2022-12-19T15:04:51.953Z,32.43
2022-12-19T15:10:59.986Z,33.23
2022-12-19T15:14:55.377Z,30.77
2022-12-19T15:19:46.977Z,33.50
2022-12-19T15:24:42.116Z,35.30
2022-12-19T15:29:35.987Z,31.33
2022-12-19T15:34:37.222Z,33.53
2022-12-19T15:39:35.095Z,32.13
2022-12-19T15:44:34.822Z,36.23
2022-12-19T15:49:28.153Z,33.90
2022-12-19T15:54:47.917Z,33.53
2022-12-19T15:59:44.925Z,32.93
2022-12-19T16:04:38.387Z,35.07
2022-12-19T16:09:33.439Z,32.27
2022-12-19T16:14:28.058Z,35.03
2022-12-19T16:19:29.201Z,32.70
2022-12-19T16:24:23.464Z,33.80
2022-12-19T16:29:22.349Z,31.23
2022-12-19T16:34:19.383Z,34.60
2022-12-19T16:39:14.922Z,31.57
2022-12-19T16:44:19.556Z,33.63
2022-12-19T16:49:16.956Z,33.13
2022-12-19T16:54:14.428Z,32.60
2022-12-19T16:59:15.669Z,35.17
2022-12-19T17:04:10.223Z,34.03
2022-12-19T17:09:03.572Z,34.87
2022-12-19T17:14:09.068Z,33.50
2022-12-19T17:19:03.282Z,35.90
2022-12-19T17:56:34.276Z,32.43
2022-12-19T18:01:27.895Z,39.20
2022-12-19T18:06:22.418Z,38.87
2022-12-19T18:11:22.152Z,35.07
2022-12-19T18:16:20.856Z,36.43
2022-12-19T18:41:21.162Z,32.33
2022-12-19T18:46:17.580Z,32.53
2022-12-19T18:57:44.950Z,29.87
2022-12-19T19:02:38.645Z,32.03
2022-12-19T19:07:32.896Z,32.20
2022-12-19T19:12:26.215Z,31.50
2022-12-19T19:17:29.370Z,31.07
2022-12-19T19:22:23.399Z,32.25
2022-12-19T19:33:55.796Z,34.13
2022-12-19T19:38:55.922Z,33.33
